Time;durP1;ratioP1;P1;durP2;ratioP2;P2;SDS_P1;SDS_P2;PMS_P1;PMS_P2;Temp;Humidity;BMP_temperature;BMP_pressure;BME280_temperature;BME280_humidity;BME280_pressure;Samples;Min_cycle;Max_cycle;Signal;HPM_P1;HPM_P2
2020/12/22 00:00:23;;;;;;;1.40;0.83;;;;;;;;;;5008111;28;20205;-69
2020/12/22 00:02:50;;;;;;;1.97;1.90;;;;;;;;;;5031144;28;20251;-70
2020/12/22 00:05:17;;;;;;;0.30;0.30;;;;;;;;;;5028190;28;20242;-70
2020/12/22 00:07:43;;;;;;;0.43;0.43;;;;;;;;;;5038044;28;20197;-69
2020/12/22 00:10:11;;;;;;;0.20;0.20;;;;;;;;;;5021888;28;20197;-70
2020/12/22 00:12:38;;;;;;;2.20;0.97;;;;;;;;;;5017426;28;20201;-70
2020/12/22 00:15:05;;;;;;;0.30;0.30;;;;;;;;;;5027648;28;20443;-69
2020/12/22 00:17:32;;;;;;;0.20;0.20;;;;;;;;;;5025572;28;20200;-70
2020/12/22 00:19:59;;;;;;;0.20;0.20;;;;;;;;;;5033586;28;20455;-69
2020/12/22 00:22:25;;;;;;;0.20;0.20;;;;;;;;;;5031246;28;20243;-69
2020/12/22 00:24:52;;;;;;;2.20;2.10;;;;;;;;;;5031894;28;20255;-69
2020/12/22 00:27:18;;;;;;;0.43;0.43;;;;;;;;;;5017075;28;20225;-69
2020/12/22 00:29:45;;;;;;;0.53;0.53;;;;;;;;;;5024136;28;20201;-69
2020/12/22 00:32:11;;;;;;;0.20;0.20;;;;;;;;;;5034676;28;20229;-69
2020/12/22 00:34:37;;;;;;;1.63;1.57;;;;;;;;;;5053853;28;20196;-69
2020/12/22 00:37:05;;;;;;;6.93;2.37;;;;;;;;;;5020216;28;20196;-70
2020/12/22 00:39:31;;;;;;;0.80;0.80;;;;;;;;;;5020042;28;20539;-69
2020/12/22 00:41:58;;;;;;;0.43;0.43;;;;;;;;;;5036005;28;20208;-69
2020/12/22 00:44:24;;;;;;;0.23;0.23;;;;;;;;;;5036939;28;20268;-69
2020/12/22 00:46:51;;;;;;;1.87;1.80;;;;;;;;;;5038332;28;20282;-69
2020/12/22 00:49:17;;;;;;;4.37;4.00;;;;;;;;;;5052950;28;20277;-69
2020/12/22 00:51:43;;;;;;;0.93;0.93;;;;;;;;;;5035978;28;20207;-70
2020/12/22 00:54:11;;;;;;;0.40;0.40;;;;;;;;;;5016259;28;20273;-69
2020/12/22 00:56:37;;;;;;;0.20;0.20;;;;;;;;;;5023739;28;20387;-70
2020/12/22 00:59:03;;;;;;;0.60;0.60;;;;;;;;;;5023804;28;20232;-69
2020/12/22 01:01:30;;;;;;;0.87;0.87;;;;;;;;;;5003918;28;20206;-70
2020/12/22 01:03:57;;;;;;;1.70;0.53;;;;;;;;;;4997082;28;20396;-70
2020/12/22 01:06:23;;;;;;;0.20;0.20;;;;;;;;;;5023087;28;20202;-70
2020/12/22 01:08:50;;;;;;;2.30;2.20;;;;;;;;;;5021287;28;20273;-71
2020/12/22 01:11:18;;;;;;;0.70;0.70;;;;;;;;;;5021616;28;20212;-70
2020/12/22 01:13:44;;;;;;;0.20;0.20;;;;;;;;;;5015599;28;20197;-69
2020/12/22 01:16:11;;;;;;;0.40;0.40;;;;;;;;;;5011594;28;20244;-68
2020/12/22 01:18:37;;;;;;;0.20;0.20;;;;;;;;;;5031763;28;20197;-69
2020/12/22 01:21:04;;;;;;;1.17;1.13;;;;;;;;;;5019001;28;20388;-69
2020/12/22 01:23:30;;;;;;;0.37;0.37;;;;;;;;;;4998279;28;20198;-69
2020/12/22 01:25:57;;;;;;;1.70;0.67;;;;;;;;;;5019693;28;20201;-69
2020/12/22 01:28:24;;;;;;;0.20;0.20;;;;;;;;;;5006762;28;20210;-69
2020/12/22 01:30:51;;;;;;;0.30;0.30;;;;;;;;;;5011271;28;20251;-69
2020/12/22 01:33:19;;;;;;;1.43;1.43;;;;;;;;;;5010533;28;20229;-69
2020/12/22 01:35:45;;;;;;;0.57;0.57;;;;;;;;;;5016250;28;20212;-69
2020/12/22 01:38:12;;;;;;;1.90;1.80;;;;;;;;;;5001188;28;20216;-69
2020/12/22 01:40:38;;;;;;;0.30;0.30;;;;;;;;;;5021604;28;20514;-69
2020/12/22 01:43:05;;;;;;;1.60;1.50;;;;;;;;;;5005556;28;20209;-69
2020/12/22 01:45:32;;;;;;;10.43;4.90;;;;;;;;;;5020409;28;20232;-69
2020/12/22 01:47:58;;;;;;;2.20;2.10;;;;;;;;;;5001400;28;20213;-69
2020/12/22 01:50:25;;;;;;;1.03;0.60;;;;;;;;;;5003535;28;20256;-69
2020/12/22 01:52:52;;;;;;;0.20;0.20;;;;;;;;;;4995229;28;20278;-69
2020/12/22 01:55:18;;;;;;;0.20;0.20;;;;;;;;;;5019838;28;20225;-69
2020/12/22 01:57:45;;;;;;;0.40;0.40;;;;;;;;;;5021895;28;20202;-69
2020/12/22 02:00:11;;;;;;;0.40;0.40;;;;;;;;;;5012219;28;20232;-69
2020/12/22 02:02:40;;;;;;;0.30;0.30;;;;;;;;;;5015159;28;20258;-69
2020/12/22 02:05:07;;;;;;;0.20;0.20;;;;;;;;;;5014420;28;20230;-69
2020/12/22 02:07:33;;;;;;;0.20;0.20;;;;;;;;;;5014086;28;20205;-69
2020/12/22 02:10:01;;;;;;;0.30;0.30;;;;;;;;;;5005371;28;20237;-69
2020/12/22 02:12:27;;;;;;;0.20;0.20;;;;;;;;;;5018404;28;20204;-69
2020/12/22 02:14:54;;;;;;;0.53;0.53;;;;;;;;;;4999675;28;20199;-69
2020/12/22 02:17:21;;;;;;;0.20;0.20;;;;;;;;;;5016126;28;20283;-69
2020/12/22 02:19:48;;;;;;;0.47;0.47;;;;;;;;;;5001532;28;20221;-70
2020/12/22 02:22:15;;;;;;;0.20;0.20;;;;;;;;;;4995952;28;20247;-69
2020/12/22 02:24:42;;;;;;;0.20;0.20;;;;;;;;;;4989452;28;20222;-70
2020/12/22 02:27:08;;;;;;;0.20;0.20;;;;;;;;;;4990617;28;20242;-69
2020/12/22 02:29:35;;;;;;;0.20;0.20;;;;;;;;;;5000881;28;20390;-69
2020/12/22 02:32:01;;;;;;;0.53;0.53;;;;;;;;;;4992922;28;20233;-69
2020/12/22 02:34:28;;;;;;;2.27;1.67;;;;;;;;;;4994037;28;20273;-69
2020/12/22 02:36:54;;;;;;;0.20;0.20;;;;;;;;;;5009036;28;20202;-69
2020/12/22 02:39:22;;;;;;;0.30;0.30;;;;;;;;;;5002008;28;20230;-69
2020/12/22 02:41:48;;;;;;;0.30;0.30;;;;;;;;;;4997579;28;20509;-70
2020/12/22 02:44:15;;;;;;;0.20;0.20;;;;;;;;;;4997735;28;20486;-69
2020/12/22 02:46:41;;;;;;;4.60;1.27;;;;;;;;;;5016099;28;20233;-69
2020/12/22 02:49:07;;;;;;;0.93;0.93;;;;;;;;;;5003690;28;20277;-69
2020/12/22 02:51:34;;;;;;;0.53;0.43;;;;;;;;;;5018268;28;20203;-69
2020/12/22 02:54:00;;;;;;;0.20;0.20;;;;;;;;;;5037015;28;20204;-69
2020/12/22 02:56:30;;;;;;;0.20;0.20;;;;;;;;;;5002530;28;20281;-69
2020/12/22 02:58:56;;;;;;;0.50;0.50;;;;;;;;;;5004335;28;20214;-69
2020/12/22 03:01:23;;;;;;;0.27;0.27;;;;;;;;;;5014348;28;20367;-70
2020/12/22 03:03:49;;;;;;;0.20;0.20;;;;;;;;;;5015710;28;20201;-69
2020/12/22 03:06:16;;;;;;;0.70;0.70;;;;;;;;;;5022566;28;20229;-70
2020/12/22 03:08:43;;;;;;;0.20;0.20;;;;;;;;;;5028478;28;20271;-70
2020/12/22 03:11:09;;;;;;;0.20;0.20;;;;;;;;;;5017889;28;20273;-69
2020/12/22 03:13:36;;;;;;;0.30;0.30;;;;;;;;;;5023718;28;20548;-70
2020/12/22 03:16:03;;;;;;;1.70;1.63;;;;;;;;;;5010886;28;20198;-70
2020/12/22 03:18:29;;;;;;;0.13;0.13;;;;;;;;;;5007674;28;20246;-70
2020/12/22 03:20:56;;;;;;;9.73;3.97;;;;;;;;;;5004856;28;20199;-70
2020/12/22 03:23:22;;;;;;;0.20;0.20;;;;;;;;;;4999453;28;20337;-70
2020/12/22 03:25:49;;;;;;;2.23;1.90;;;;;;;;;;5012909;28;20284;-70
2020/12/22 03:28:15;;;;;;;0.20;0.20;;;;;;;;;;5033987;28;20456;-70
2020/12/22 03:30:43;;;;;;;0.17;0.17;;;;;;;;;;5020627;28;20229;-70
2020/12/22 03:33:09;;;;;;;0.20;0.20;;;;;;;;;;5019742;28;20355;-69
2020/12/22 03:35:35;;;;;;;2.23;1.63;;;;;;;;;;5001289;28;20200;-70
2020/12/22 03:38:02;;;;;;;2.63;2.53;;;;;;;;;;5004634;28;20229;-70
2020/12/22 03:40:28;;;;;;;0.20;0.20;;;;;;;;;;5015887;28;20311;-70
2020/12/22 03:42:55;;;;;;;0.20;0.20;;;;;;;;;;5007209;28;20201;-70
2020/12/22 03:45:21;;;;;;;0.20;0.20;;;;;;;;;;5009989;28;20233;-70
2020/12/22 03:47:49;;;;;;;0.50;0.50;;;;;;;;;;5021002;28;20255;-71
2020/12/22 03:50:15;;;;;;;0.20;0.20;;;;;;;;;;5006030;28;20509;-70
2020/12/22 03:52:41;;;;;;;1.23;1.23;;;;;;;;;;5021296;28;20201;-70
2020/12/22 03:55:08;;;;;;;1.90;1.70;;;;;;;;;;5017044;28;20317;-70
2020/12/22 03:57:34;;;;;;;0.20;0.20;;;;;;;;;;5020085;28;20209;-70
2020/12/22 04:00:00;;;;;;;0.20;0.20;;;;;;;;;;5032354;28;20208;-70
2020/12/22 04:02:26;;;;;;;0.20;0.20;;;;;;;;;;5004165;28;20198;-70
2020/12/22 04:04:54;;;;;;;0.30;0.30;;;;;;;;;;5019374;28;20240;-70
2020/12/22 04:07:21;;;;;;;0.30;0.30;;;;;;;;;;5025148;28;20228;-70
2020/12/22 04:09:47;;;;;;;0.20;0.20;;;;;;;;;;5022248;28;20277;-70
2020/12/22 04:12:14;;;;;;;0.30;0.30;;;;;;;;;;5003326;28;20204;-70
2020/12/22 04:14:40;;;;;;;0.20;0.20;;;;;;;;;;5009814;28;20236;-69
2020/12/22 04:17:06;;;;;;;0.70;0.70;;;;;;;;;;5005218;28;20197;-70
2020/12/22 04:19:33;;;;;;;1.80;1.80;;;;;;;;;;5022168;28;20201;-70
2020/12/22 04:22:00;;;;;;;0.20;0.20;;;;;;;;;;5004020;28;20209;-70
2020/12/22 04:24:27;;;;;;;0.53;0.47;;;;;;;;;;5017735;28;20253;-70
2020/12/22 04:26:53;;;;;;;1.63;1.63;;;;;;;;;;5019206;28;20229;-70
2020/12/22 04:29:20;;;;;;;0.20;0.20;;;;;;;;;;5015440;28;20235;-70
2020/12/22 04:31:46;;;;;;;0.40;0.40;;;;;;;;;;5013579;28;20488;-70
2020/12/22 04:34:13;;;;;;;0.73;0.73;;;;;;;;;;5014149;28;20275;-70
2020/12/22 04:36:39;;;;;;;1.23;1.23;;;;;;;;;;5008164;28;20202;-70
2020/12/22 04:39:07;;;;;;;2.03;1.93;;;;;;;;;;5015561;28;20243;-70
2020/12/22 04:41:34;;;;;;;0.33;0.33;;;;;;;;;;5002384;28;20245;-70
2020/12/22 04:44:01;;;;;;;0.43;0.43;;;;;;;;;;5002682;28;20267;-70
2020/12/22 04:46:28;;;;;;;0.83;0.83;;;;;;;;;;5011729;28;20205;-70
2020/12/22 04:48:55;;;;;;;0.30;0.30;;;;;;;;;;4994048;28;20504;-70
2020/12/22 04:51:23;;;;;;;0.30;0.30;;;;;;;;;;5018631;28;20208;-71
2020/12/22 04:53:50;;;;;;;0.43;0.43;;;;;;;;;;5009256;28;20276;-71
2020/12/22 04:56:19;;;;;;;0.20;0.20;;;;;;;;;;5023266;28;20244;-72
2020/12/22 04:58:45;;;;;;;0.10;0.10;;;;;;;;;;5010062;28;20289;-70
2020/12/22 05:01:12;;;;;;;0.13;0.13;;;;;;;;;;5017657;28;20248;-70
2020/12/22 05:03:38;;;;;;;3.50;3.30;;;;;;;;;;5006507;28;20457;-70
2020/12/22 05:06:05;;;;;;;0.50;0.50;;;;;;;;;;5005222;28;20317;-70
2020/12/22 05:08:31;;;;;;;8.90;5.00;;;;;;;;;;4998654;28;20236;-73
2020/12/22 05:10:57;;;;;;;0.20;0.20;;;;;;;;;;5006338;28;20564;-71
2020/12/22 05:13:25;;;;;;;0.20;0.20;;;;;;;;;;5005474;28;20197;-70
2020/12/22 05:15:52;;;;;;;0.10;0.10;;;;;;;;;;5007312;28;20389;-70
2020/12/22 05:18:19;;;;;;;0.20;0.20;;;;;;;;;;5021710;28;20243;-71
2020/12/22 05:20:47;;;;;;;1.17;1.17;;;;;;;;;;5025002;28;20258;-70
2020/12/22 05:23:14;;;;;;;0.20;0.20;;;;;;;;;;5005190;28;20202;-70
2020/12/22 05:25:41;;;;;;;0.20;0.20;;;;;;;;;;5027618;28;20394;-70
2020/12/22 05:28:07;;;;;;;0.63;0.63;;;;;;;;;;5006736;28;20206;-71
2020/12/22 05:30:36;;;;;;;0.20;0.20;;;;;;;;;;5017092;28;20206;-70
2020/12/22 05:33:03;;;;;;;0.20;0.20;;;;;;;;;;5010565;28;20198;-70
2020/12/22 05:35:33;;;;;;;0.77;0.63;;;;;;;;;;5007348;28;20293;-70
2020/12/22 05:38:01;;;;;;;0.20;0.20;;;;;;;;;;5035362;28;20230;-71
2020/12/22 05:40:27;;;;;;;0.20;0.20;;;;;;;;;;5021000;28;20493;-70
2020/12/22 05:42:54;;;;;;;0.10;0.10;;;;;;;;;;5002307;28;20200;-70
2020/12/22 05:45:20;;;;;;;0.53;0.53;;;;;;;;;;5008323;28;20300;-69
2020/12/22 05:47:52;;;;;;;0.20;0.20;;;;;;;;;;5020702;28;20240;-70
2020/12/22 05:50:18;;;;;;;0.10;0.10;;;;;;;;;;5023788;28;20528;-70
2020/12/22 05:52:46;;;;;;;0.17;0.17;;;;;;;;;;5009297;28;20210;-69
2020/12/22 05:55:12;;;;;;;0.20;0.20;;;;;;;;;;5022374;28;20225;-69
2020/12/22 05:57:39;;;;;;;0.20;0.20;;;;;;;;;;5001987;28;20208;-69
2020/12/22 06:00:13;;;;;;;0.30;0.30;;;;;;;;;;5032534;28;20374;-69
2020/12/22 06:02:40;;;;;;;0.20;0.20;;;;;;;;;;5021980;28;20206;-69
2020/12/22 06:05:07;;;;;;;0.20;0.20;;;;;;;;;;5003770;28;20251;-69
2020/12/22 06:07:34;;;;;;;0.57;0.57;;;;;;;;;;5022781;28;20234;-69
2020/12/22 06:10:00;;;;;;;0.20;0.20;;;;;;;;;;5005395;28;20202;-69
2020/12/22 06:12:26;;;;;;;1.10;1.10;;;;;;;;;;5019429;28;20230;-69
2020/12/22 06:14:53;;;;;;;0.20;0.20;;;;;;;;;;5017431;28;20205;-70
2020/12/22 06:17:20;;;;;;;0.13;0.13;;;;;;;;;;5019350;28;20203;-69
2020/12/22 06:19:47;;;;;;;1.63;1.53;;;;;;;;;;5024560;28;20226;-70
2020/12/22 06:22:15;;;;;;;2.80;2.60;;;;;;;;;;5007748;28;20229;-70
2020/12/22 06:24:41;;;;;;;0.30;0.30;;;;;;;;;;5016837;28;20226;-69
2020/12/22 06:27:08;;;;;;;0.20;0.20;;;;;;;;;;5014233;28;20419;-70
2020/12/22 06:29:34;;;;;;;0.13;0.13;;;;;;;;;;5003091;28;20470;-69
2020/12/22 06:32:22;;;;;;;0.10;0.10;;;;;;;;;;5011974;28;20270;-69
2020/12/22 06:34:48;;;;;;;0.20;0.20;;;;;;;;;;5022358;28;20327;-69
2020/12/22 06:37:16;;;;;;;0.20;0.20;;;;;;;;;;5005036;28;20536;-69
2020/12/22 06:39:43;;;;;;;0.20;0.20;;;;;;;;;;5019729;28;20206;-69
2020/12/22 06:42:09;;;;;;;0.27;0.27;;;;;;;;;;5006821;28;20203;-69
2020/12/22 06:44:36;;;;;;;0.20;0.20;;;;;;;;;;5010537;28;20243;-70
2020/12/22 06:47:03;;;;;;;0.20;0.20;;;;;;;;;;5017136;28;20199;-69
2020/12/22 06:49:48;;;;;;;0.20;0.20;;;;;;;;;;5016141;28;20245;-69
2020/12/22 06:52:32;;;;;;;0.20;0.20;;;;;;;;;;5036424;28;20221;-69
2020/12/22 06:54:59;;;;;;;0.40;0.40;;;;;;;;;;5003241;28;20198;-69
2020/12/22 06:57:45;;;;;;;0.20;0.20;;;;;;;;;;5016896;28;20234;-70
2020/12/22 07:00:23;;;;;;;0.23;0.23;;;;;;;;;;5015349;28;20484;-69
2020/12/22 07:02:50;;;;;;;0.20;0.20;;;;;;;;;;5037714;28;20211;-72
2020/12/22 07:05:31;;;;;;;0.10;0.10;;;;;;;;;;5009176;28;20214;-70
2020/12/22 07:07:58;;;;;;;0.10;0.10;;;;;;;;;;5040079;28;20206;-74
2020/12/22 07:10:26;;;;;;;0.20;0.20;;;;;;;;;;5040617;28;20277;-71
2020/12/22 07:12:53;;;;;;;0.10;0.10;;;;;;;;;;5005827;28;20271;-72
2020/12/22 07:15:20;;;;;;;0.10;0.10;;;;;;;;;;5008943;28;20207;-80
2020/12/22 07:17:46;;;;;;;0.20;0.20;;;;;;;;;;4998076;28;20248;-72
2020/12/22 07:20:14;;;;;;;0.10;0.10;;;;;;;;;;5016599;28;20210;-70
2020/12/22 07:22:40;;;;;;;0.17;0.17;;;;;;;;;;5002985;28;20225;-71
2020/12/22 07:25:07;;;;;;;0.10;0.10;;;;;;;;;;4996325;28;20481;-70
2020/12/22 07:27:34;;;;;;;0.20;0.20;;;;;;;;;;5014210;28;20567;-72
2020/12/22 07:30:00;;;;;;;0.23;0.23;;;;;;;;;;5008693;28;20209;-70
2020/12/22 07:32:27;;;;;;;0.20;0.20;;;;;;;;;;5013755;28;20223;-71
2020/12/22 07:34:53;;;;;;;0.20;0.20;;;;;;;;;;5017382;28;20211;-72
2020/12/22 07:37:20;;;;;;;0.10;0.10;;;;;;;;;;5014738;28;20235;-73
2020/12/22 07:39:46;;;;;;;0.20;0.20;;;;;;;;;;5006089;28;20274;-72
2020/12/22 07:42:14;;;;;;;0.10;0.10;;;;;;;;;;5021185;28;20495;-71
2020/12/22 07:44:41;;;;;;;0.37;0.37;;;;;;;;;;5034339;28;20235;-71
2020/12/22 07:47:08;;;;;;;0.10;0.10;;;;;;;;;;5038660;28;20205;-71
2020/12/22 07:49:34;;;;;;;0.10;0.10;;;;;;;;;;5032182;28;20203;-71
2020/12/22 07:52:01;;;;;;;0.20;0.20;;;;;;;;;;5027261;28;20238;-71
2020/12/22 07:54:27;;;;;;;0.13;0.13;;;;;;;;;;5011001;28;20524;-72
2020/12/22 07:56:57;;;;;;;0.10;0.10;;;;;;;;;;4994781;28;20239;-70
2020/12/22 07:59:24;;;;;;;0.10;0.10;;;;;;;;;;5016624;28;20288;-71
2020/12/22 08:01:51;;;;;;;0.10;0.10;;;;;;;;;;5014744;28;20251;-71
2020/12/22 08:04:18;;;;;;;0.10;0.10;;;;;;;;;;5013546;28;20243;-70
2020/12/22 08:06:53;;;;;;;1.30;0.97;;;;;;;;;;5018254;28;20286;-71
2020/12/22 08:09:23;;;;;;;0.10;0.10;;;;;;;;;;5031718;28;20214;-71
2020/12/22 08:11:50;;;;;;;0.10;0.10;;;;;;;;;;5021672;28;20217;-71
2020/12/22 08:14:17;;;;;;;0.10;0.10;;;;;;;;;;5042043;28;20200;-71
2020/12/22 08:16:45;;;;;;;0.10;0.10;;;;;;;;;;5046514;28;20239;-71
2020/12/22 08:19:12;;;;;;;0.17;0.17;;;;;;;;;;5026561;28;20272;-73
2020/12/22 08:21:38;;;;;;;0.47;0.47;;;;;;;;;;5030677;28;20231;-73
2020/12/22 08:24:05;;;;;;;0.10;0.10;;;;;;;;;;4992686;28;20239;-74
2020/12/22 08:26:31;;;;;;;0.17;0.17;;;;;;;;;;5016347;28;20248;-74
2020/12/22 08:28:58;;;;;;;0.10;0.10;;;;;;;;;;5003724;28;20243;-75
2020/12/22 08:31:25;;;;;;;0.10;0.10;;;;;;;;;;5031552;28;20399;-76
2020/12/22 08:33:53;;;;;;;0.20;0.20;;;;;;;;;;5004498;28;20235;-75
2020/12/22 08:36:20;;;;;;;0.10;0.10;;;;;;;;;;5021302;28;20232;-75
2020/12/22 08:38:47;;;;;;;0.10;0.10;;;;;;;;;;5003690;28;20208;-74
2020/12/22 08:41:17;;;;;;;0.20;0.20;;;;;;;;;;5029436;28;20283;-78
2020/12/22 08:43:50;;;;;;;0.10;0.10;;;;;;;;;;5021088;28;20260;-75
2020/12/22 08:46:21;;;;;;;0.10;0.10;;;;;;;;;;5034043;28;20255;-78
2020/12/22 08:48:47;;;;;;;0.20;0.20;;;;;;;;;;5024287;28;20205;-78
2020/12/22 08:51:24;;;;;;;1.37;1.27;;;;;;;;;;5036311;28;20205;-78
2020/12/22 08:53:53;;;;;;;0.20;0.20;;;;;;;;;;5037096;28;20278;-77
2020/12/22 08:56:22;;;;;;;0.10;0.10;;;;;;;;;;5015904;28;20200;-78
2020/12/22 08:58:52;;;;;;;0.10;0.10;;;;;;;;;;5038137;28;20451;-78
2020/12/22 09:01:18;;;;;;;0.10;0.10;;;;;;;;;;5008139;28;20227;-78
2020/12/22 09:03:50;;;;;;;0.10;0.10;;;;;;;;;;5018294;28;20211;-75
2020/12/22 09:06:16;;;;;;;0.10;0.10;;;;;;;;;;5010709;28;20251;-75
2020/12/22 09:08:45;;;;;;;0.10;0.10;;;;;;;;;;5027685;28;20275;-75
2020/12/22 09:11:19;;;;;;;0.10;0.10;;;;;;;;;;5003791;28;20252;-74
2020/12/22 09:13:45;;;;;;;0.10;0.10;;;;;;;;;;5007161;28;20201;-74
2020/12/22 09:16:12;;;;;;;0.10;0.10;;;;;;;;;;5020815;28;20298;-76
2020/12/22 09:18:39;;;;;;;0.50;0.50;;;;;;;;;;5006633;28;20237;-76
2020/12/22 09:21:06;;;;;;;0.10;0.10;;;;;;;;;;5028420;28;20209;-76
2020/12/22 09:23:32;;;;;;;0.17;0.17;;;;;;;;;;5030489;28;20197;-75
2020/12/22 09:26:00;;;;;;;0.10;0.10;;;;;;;;;;5005543;28;20229;-76
2020/12/22 09:28:26;;;;;;;0.20;0.20;;;;;;;;;;4997969;28;20481;-76
2020/12/22 09:30:53;;;;;;;0.10;0.10;;;;;;;;;;5011315;28;20201;-75
2020/12/22 09:33:19;;;;;;;0.20;0.20;;;;;;;;;;5018576;28;20523;-74
2020/12/22 09:35:46;;;;;;;0.20;0.20;;;;;;;;;;5003393;28;20198;-73
2020/12/22 09:38:12;;;;;;;0.13;0.13;;;;;;;;;;5010030;28;20260;-73
2020/12/22 09:40:38;;;;;;;0.20;0.20;;;;;;;;;;5009027;28;20278;-77
2020/12/22 09:43:06;;;;;;;0.10;0.10;;;;;;;;;;5010801;28;20233;-79
2020/12/22 09:45:32;;;;;;;0.17;0.17;;;;;;;;;;5030852;28;20240;-73
2020/12/22 09:47:58;;;;;;;0.17;0.17;;;;;;;;;;5019042;28;20396;-71
2020/12/22 09:50:24;;;;;;;0.10;0.10;;;;;;;;;;5012955;28;20209;-71
2020/12/22 09:52:51;;;;;;;0.10;0.10;;;;;;;;;;4995308;28;20212;-73
2020/12/22 09:55:17;;;;;;;0.10;0.10;;;;;;;;;;5015926;28;20241;-74
2020/12/22 09:57:44;;;;;;;0.10;0.10;;;;;;;;;;5015719;28;20205;-73
2020/12/22 10:00:11;;;;;;;0.10;0.10;;;;;;;;;;5009759;28;20197;-72
2020/12/22 10:02:38;;;;;;;0.10;0.10;;;;;;;;;;4998701;28;20202;-70
2020/12/22 10:05:04;;;;;;;0.10;0.10;;;;;;;;;;5007726;28;20244;-70
2020/12/22 10:07:30;;;;;;;0.13;0.13;;;;;;;;;;5015476;28;20235;-73
2020/12/22 10:09:57;;;;;;;0.10;0.10;;;;;;;;;;5015671;28;20273;-75
2020/12/22 10:12:23;;;;;;;0.10;0.10;;;;;;;;;;4993812;28;20235;-76
2020/12/22 10:14:49;;;;;;;0.30;0.30;;;;;;;;;;5006863;28;20217;-77
2020/12/22 10:17:17;;;;;;;0.10;0.10;;;;;;;;;;4996516;28;20235;-78
2020/12/22 10:19:43;;;;;;;0.10;0.10;;;;;;;;;;5013539;28;20225;-77
2020/12/22 10:22:10;;;;;;;0.10;0.10;;;;;;;;;;4997790;28;20236;-70
2020/12/22 10:24:36;;;;;;;0.10;0.10;;;;;;;;;;5005625;28;20270;-70
2020/12/22 10:27:03;;;;;;;0.10;0.10;;;;;;;;;;4991766;28;20425;-70
2020/12/22 10:29:30;;;;;;;0.10;0.10;;;;;;;;;;5009030;28;20312;-69
2020/12/22 10:31:56;;;;;;;0.10;0.10;;;;;;;;;;4993159;28;20202;-70
2020/12/22 10:34:24;;;;;;;0.10;0.10;;;;;;;;;;5009687;28;20452;-70
2020/12/22 10:36:50;;;;;;;0.10;0.10;;;;;;;;;;4994080;28;20215;-70
2020/12/22 10:39:17;;;;;;;0.10;0.10;;;;;;;;;;5010431;28;20202;-72
2020/12/22 10:41:43;;;;;;;0.10;0.10;;;;;;;;;;4997262;28;20202;-69
2020/12/22 10:44:10;;;;;;;0.10;0.10;;;;;;;;;;5003225;28;20242;-70
2020/12/22 10:46:36;;;;;;;0.10;0.10;;;;;;;;;;5012178;28;20236;-69
2020/12/22 10:49:03;;;;;;;0.10;0.10;;;;;;;;;;5008625;28;20209;-73
2020/12/22 10:51:31;;;;;;;0.10;0.10;;;;;;;;;;5039663;28;20293;-71
2020/12/22 10:53:58;;;;;;;0.10;0.10;;;;;;;;;;5021020;28;20230;-70
2020/12/22 10:56:24;;;;;;;0.10;0.10;;;;;;;;;;4997898;28;20392;-71
2020/12/22 10:58:51;;;;;;;5.93;2.43;;;;;;;;;;4993103;28;20243;-69
2020/12/22 11:01:18;;;;;;;0.10;0.10;;;;;;;;;;5011836;28;20203;-70
2020/12/22 11:03:44;;;;;;;0.10;0.10;;;;;;;;;;5017997;28;20437;-71
2020/12/22 11:06:22;;;;;;;0.10;0.10;;;;;;;;;;5014315;28;20217;-71
2020/12/22 11:08:49;;;;;;;8.43;8.03;;;;;;;;;;5013501;28;20203;-70
2020/12/22 11:11:16;;;;;;;0.10;0.10;;;;;;;;;;5015818;28;20202;-70
2020/12/22 11:13:42;;;;;;;0.20;0.20;;;;;;;;;;5002262;28;20202;-72
2020/12/22 11:16:10;;;;;;;0.30;0.30;;;;;;;;;;5010979;28;20224;-74
2020/12/22 11:18:37;;;;;;;0.20;0.20;;;;;;;;;;5005852;28;20246;-74
2020/12/22 11:21:08;;;;;;;0.17;0.17;;;;;;;;;;5004092;28;20199;-72
2020/12/22 11:23:34;;;;;;;0.73;0.73;;;;;;;;;;5007445;28;20231;-71
2020/12/22 11:26:01;;;;;;;0.10;0.10;;;;;;;;;;5006129;28;20355;-70
2020/12/22 11:28:28;;;;;;;0.10;0.10;;;;;;;;;;5017529;28;20209;-72
2020/12/22 11:30:55;;;;;;;0.10;0.10;;;;;;;;;;5002893;28;20202;-71
2020/12/22 11:33:21;;;;;;;0.10;0.10;;;;;;;;;;4995517;28;20498;-72
2020/12/22 11:35:48;;;;;;;0.10;0.10;;;;;;;;;;5000547;28;20362;-73
2020/12/22 11:38:14;;;;;;;0.10;0.10;;;;;;;;;;5002894;28;20401;-73
2020/12/22 11:40:41;;;;;;;0.10;0.10;;;;;;;;;;5013223;28;20199;-73
2020/12/22 11:43:09;;;;;;;0.10;0.10;;;;;;;;;;5005895;28;20204;-72
2020/12/22 11:45:36;;;;;;;0.10;0.10;;;;;;;;;;5001811;28;20234;-73
2020/12/22 11:48:02;;;;;;;0.10;0.10;;;;;;;;;;4991416;28;20226;-73
2020/12/22 11:50:29;;;;;;;0.10;0.10;;;;;;;;;;5010211;28;20206;-73
2020/12/22 11:52:55;;;;;;;0.10;0.10;;;;;;;;;;5011183;28;20231;-72
2020/12/22 11:55:22;;;;;;;0.10;0.10;;;;;;;;;;5011914;28;20344;-74
2020/12/22 11:57:48;;;;;;;0.10;0.10;;;;;;;;;;5008188;28;20208;-73
2020/12/22 12:00:16;;;;;;;0.10;0.10;;;;;;;;;;5021137;28;20251;-75
2020/12/22 12:02:43;;;;;;;0.10;0.10;;;;;;;;;;4995850;28;20208;-73
2020/12/22 12:05:09;;;;;;;0.10;0.10;;;;;;;;;;5018122;28;20228;-73
2020/12/22 12:07:36;;;;;;;0.17;0.17;;;;;;;;;;5007698;28;20494;-73
2020/12/22 12:10:02;;;;;;;0.10;0.10;;;;;;;;;;5008137;28;20233;-73
2020/12/22 12:12:28;;;;;;;0.10;0.10;;;;;;;;;;4996072;28;20279;-73
2020/12/22 12:14:55;;;;;;;0.20;0.20;;;;;;;;;;5007990;28;20200;-73
2020/12/22 12:17:22;;;;;;;0.10;0.10;;;;;;;;;;5002063;28;20424;-72
2020/12/22 12:19:49;;;;;;;0.20;0.20;;;;;;;;;;5005085;28;20207;-72
2020/12/22 12:22:16;;;;;;;0.10;0.10;;;;;;;;;;4991567;28;20233;-72
2020/12/22 12:24:42;;;;;;;0.10;0.10;;;;;;;;;;5011946;28;20286;-71
2020/12/22 12:27:09;;;;;;;0.10;0.10;;;;;;;;;;4994869;28;20211;-72
2020/12/22 12:29:35;;;;;;;0.10;0.10;;;;;;;;;;5011474;28;20358;-73
2020/12/22 12:32:02;;;;;;;0.10;0.10;;;;;;;;;;4998486;28;20240;-72
2020/12/22 12:34:29;;;;;;;0.20;0.20;;;;;;;;;;5010871;28;20216;-72
2020/12/22 12:36:56;;;;;;;0.10;0.10;;;;;;;;;;4993836;28;20405;-72
2020/12/22 12:39:22;;;;;;;0.20;0.20;;;;;;;;;;5004248;28;20239;-72
2020/12/22 12:41:49;;;;;;;0.10;0.10;;;;;;;;;;5000689;28;20279;-73
2020/12/22 12:44:16;;;;;;;0.10;0.10;;;;;;;;;;5002506;28;20252;-72
2020/12/22 12:46:42;;;;;;;0.10;0.10;;;;;;;;;;5008553;28;20549;-72
2020/12/22 12:49:10;;;;;;;0.10;0.10;;;;;;;;;;5030429;28;20205;-71
2020/12/22 12:51:41;;;;;;;0.10;0.10;;;;;;;;;;5013180;28;20215;-71
2020/12/22 12:54:07;;;;;;;0.10;0.10;;;;;;;;;;5030987;28;20211;-71
2020/12/22 12:56:34;;;;;;;0.10;0.10;;;;;;;;;;5013904;28;20507;-70
2020/12/22 12:59:00;;;;;;;0.10;0.10;;;;;;;;;;5012913;28;20244;-70
2020/12/22 13:01:27;;;;;;;0.10;0.10;;;;;;;;;;5012293;28;20381;-71
2020/12/22 13:03:53;;;;;;;0.10;0.10;;;;;;;;;;5031988;28;20214;-71
2020/12/22 13:06:20;;;;;;;0.10;0.10;;;;;;;;;;5006432;28;20248;-71
2020/12/22 13:08:47;;;;;;;0.17;0.17;;;;;;;;;;5021952;28;20388;-70
2020/12/22 13:11:14;;;;;;;0.10;0.10;;;;;;;;;;5024185;28;20203;-72
2020/12/22 13:13:42;;;;;;;0.10;0.10;;;;;;;;;;5018934;28;20200;-73
2020/12/22 13:16:08;;;;;;;0.10;0.10;;;;;;;;;;5033545;28;20384;-72
2020/12/22 13:18:35;;;;;;;0.10;0.10;;;;;;;;;;5035487;28;20255;-73
2020/12/22 13:21:02;;;;;;;0.10;0.10;;;;;;;;;;5017248;28;20388;-72
2020/12/22 13:23:28;;;;;;;0.10;0.10;;;;;;;;;;5015875;28;20267;-72
2020/12/22 13:25:55;;;;;;;0.10;0.10;;;;;;;;;;5016681;28;20248;-73
2020/12/22 13:28:22;;;;;;;0.10;0.10;;;;;;;;;;5000286;28;20393;-72
2020/12/22 13:30:49;;;;;;;1.50;1.50;;;;;;;;;;5000119;28;20488;-73
2020/12/22 13:33:15;;;;;;;0.10;0.10;;;;;;;;;;5006785;28;20211;-73
2020/12/22 13:35:42;;;;;;;0.10;0.10;;;;;;;;;;5003328;28;20222;-72
2020/12/22 13:38:09;;;;;;;0.10;0.10;;;;;;;;;;5020498;28;20285;-72
2020/12/22 13:40:35;;;;;;;0.10;0.10;;;;;;;;;;4995737;28;20243;-73
2020/12/22 13:43:03;;;;;;;0.10;0.10;;;;;;;;;;5025229;28;20512;-72
2020/12/22 13:45:29;;;;;;;0.10;0.10;;;;;;;;;;5005904;28;20491;-73
2020/12/22 13:47:56;;;;;;;0.10;0.10;;;;;;;;;;5012039;28;20376;-72
2020/12/22 13:50:22;;;;;;;0.10;0.10;;;;;;;;;;5014476;28;20500;-73
2020/12/22 13:52:48;;;;;;;0.10;0.10;;;;;;;;;;5011796;28;20211;-70
2020/12/22 13:55:14;;;;;;;0.10;0.10;;;;;;;;;;5009205;28;20227;-71
2020/12/22 13:57:41;;;;;;;0.10;0.10;;;;;;;;;;5034407;28;20215;-71
2020/12/22 14:00:09;;;;;;;0.10;0.10;;;;;;;;;;5030897;28;20210;-72
2020/12/22 14:02:35;;;;;;;0.10;0.10;;;;;;;;;;5001455;28;20547;-73
2020/12/22 14:05:02;;;;;;;0.10;0.10;;;;;;;;;;5019187;28;20299;-71
2020/12/22 14:07:28;;;;;;;0.10;0.10;;;;;;;;;;5014302;28;20236;-73
2020/12/22 14:09:55;;;;;;;0.10;0.10;;;;;;;;;;5013279;28;20266;-71
2020/12/22 14:12:21;;;;;;;0.10;0.10;;;;;;;;;;5019910;28;20197;-71
2020/12/22 14:14:47;;;;;;;0.10;0.10;;;;;;;;;;5016150;28;20275;-72
2020/12/22 14:17:15;;;;;;;0.10;0.10;;;;;;;;;;5011005;28;20211;-72
2020/12/22 14:19:41;;;;;;;0.10;0.10;;;;;;;;;;5005404;28;20315;-72
2020/12/22 14:22:08;;;;;;;0.20;0.20;;;;;;;;;;5016383;28;20204;-73
2020/12/22 14:24:34;;;;;;;0.20;0.20;;;;;;;;;;5017552;28;20231;-73
2020/12/22 14:27:01;;;;;;;0.10;0.10;;;;;;;;;;5010227;28;20209;-71
2020/12/22 14:29:27;;;;;;;0.10;0.10;;;;;;;;;;5033336;28;20542;-73
2020/12/22 14:31:54;;;;;;;0.10;0.10;;;;;;;;;;5026667;28;20204;-72
2020/12/22 14:34:21;;;;;;;0.10;0.10;;;;;;;;;;5002980;28;20559;-73
2020/12/22 14:36:52;;;;;;;0.40;0.40;;;;;;;;;;5021344;28;20235;-73
2020/12/22 14:39:19;;;;;;;0.13;0.13;;;;;;;;;;5026522;28;20236;-73
2020/12/22 14:41:47;;;;;;;0.10;0.10;;;;;;;;;;4998339;28;20208;-72